Woodside, Delaware
Current Conditions -  °F | °C
As of 6:58 AM on Monday 20 Oct 2014 (Local Time) from KDOV Reporting Station
Clear Clear  
Wind Chill: 39°   Ceiling: Unl
Heat Index: 39°   Visibility: 10mi
Dew Point: 38°   Wind: 2mph
Humidity: 95%   Direction: 180°S
Pressure: 30.1"   Gusts: NA
Location:  39.07°N, 75.57°W
Report Text: KDOV 201058Z AUTO 18002KT 10SM CLR 04/03 A3010 RMK AO2 SLP196 T00390032
Loading
Personal Weather Stations






























Interactive Weather Map
Tropical Storm Tracking
New forecast layout! Learn more

10-Day Weather Forecast

Advertisements
Track Severe Weather on mobile